CSN5037 ZGSZ-WSSS
Flight info
| Callsign | CSN5037 |
|---|---|
| Flight time | 3h 41m |
| Altitude | 36000 |
| Route | SIERA2 SIERA DCT ROCCA DCT ALLEY V32 EPDOS L642 EPKAL/K0846F360 L642 ESPOB/N0451F360 Q801 ESBUM/N0449F350 Q802 ELALO ELALO1B |
| Aircraft | A20N/M-SDE2E3FGHIRWXY/LB1 |
Departure
| Time | 2026-04-17 07:02 |
|---|---|
| Airport | Shenzhen Bao'an International Airport (ZGSZ) |
Arrival
| Time | 2026-04-17 10:43 |
|---|---|
| Airport | Singapore Changi Airport (WSSS) |
| Time | Latitude | Longitude | Altitude | Speed | Heading |
|---|---|---|---|---|---|
| 2026-04-17 06:37 | 22.63463 | 113.80698 | 21 ft | 0 kts | 153° |
| 2026-04-17 06:45 | 22.63470 | 113.80695 | 21 ft | 2 kts | 153° |
| 2026-04-17 06:46 | 22.63478 | 113.80690 | 21 ft | 1 kts | 153° |
| 2026-04-17 06:46 | 22.63491 | 113.80681 | 21 ft | 2 kts | 133° |
| 2026-04-17 06:46 | 22.63500 | 113.80668 | 21 ft | 2 kts | 116° |
| 2026-04-17 06:46 | 22.63505 | 113.80652 | 21 ft | 2 kts | 98° |
| 2026-04-17 06:47 | 22.63505 | 113.80636 | 21 ft | 2 kts | 81° |
| 2026-04-17 06:47 | 22.63501 | 113.80622 | 21 ft | 0 kts | 65° |
| 2026-04-17 06:47 | 22.63498 | 113.80616 | 21 ft | 0 kts | 63° |
| 2026-04-17 06:47 | 22.63498 | 113.80615 | 21 ft | 0 kts | 63° |
| 2026-04-17 06:49 | 22.63499 | 113.80617 | 21 ft | 0 kts | 63° |
| 2026-04-17 06:50 | 22.63503 | 113.80627 | 21 ft | 1 kts | 63° |
| 2026-04-17 06:50 | 22.63512 | 113.80643 | 21 ft | 3 kts | 63° |
| 2026-04-17 06:50 | 22.63524 | 113.80669 | 21 ft | 4 kts | 63° |
| 2026-04-17 06:50 | 22.63539 | 113.80700 | 21 ft | 5 kts | 63° |
| 2026-04-17 06:51 | 22.63558 | 113.80740 | 21 ft | 6 kts | 63° |
| 2026-04-17 06:51 | 22.63580 | 113.80786 | 21 ft | 7 kts | 63° |
| 2026-04-17 06:51 | 22.63606 | 113.80840 | 21 ft | 8 kts | 63° |
| 2026-04-17 06:51 | 22.63644 | 113.80888 | 21 ft | 8 kts | 24° |
| 2026-04-17 06:52 | 22.63699 | 113.80864 | 21 ft | 9 kts | 329° |
| 2026-04-17 06:52 | 22.63760 | 113.80828 | 21 ft | 10 kts | 333° |
| 2026-04-17 06:52 | 22.63828 | 113.80795 | 21 ft | 11 kts | 331° |
| 2026-04-17 06:52 | 22.63899 | 113.80756 | 21 ft | 11 kts | 333° |
| 2026-04-17 06:53 | 22.63955 | 113.80725 | 21 ft | 4 kts | 333° |
| 2026-04-17 06:53 | 22.63986 | 113.80709 | 21 ft | 5 kts | 333° |
| 2026-04-17 06:53 | 22.64024 | 113.80688 | 21 ft | 6 kts | 333° |
| 2026-04-17 06:53 | 22.64052 | 113.80673 | 21 ft | 2 kts | 333° |
| 2026-04-17 06:54 | 22.64074 | 113.80661 | 21 ft | 4 kts | 332° |
| 2026-04-17 06:54 | 22.64103 | 113.80643 | 21 ft | 4 kts | 332° |
| 2026-04-17 06:54 | 22.64122 | 113.80633 | 21 ft | 3 kts | 332° |
| 2026-04-17 06:54 | 22.64148 | 113.80618 | 21 ft | 4 kts | 333° |
| 2026-04-17 06:55 | 22.64183 | 113.80599 | 21 ft | 6 kts | 333° |
| 2026-04-17 06:55 | 22.64224 | 113.80577 | 21 ft | 7 kts | 333° |
| 2026-04-17 06:55 | 22.64271 | 113.80550 | 21 ft | 8 kts | 333° |
| 2026-04-17 06:55 | 22.64309 | 113.80530 | 21 ft | 5 kts | 333° |
| 2026-04-17 06:56 | 22.64349 | 113.80508 | 21 ft | 6 kts | 335° |
| 2026-04-17 06:56 | 22.64395 | 113.80483 | 21 ft | 7 kts | 333° |
| 2026-04-17 06:56 | 22.64448 | 113.80455 | 21 ft | 9 kts | 333° |
| 2026-04-17 06:56 | 22.64507 | 113.80422 | 21 ft | 10 kts | 333° |
| 2026-04-17 06:57 | 22.64573 | 113.80386 | 21 ft | 10 kts | 333° |
| 2026-04-17 06:57 | 22.64643 | 113.80347 | 21 ft | 11 kts | 333° |
| 2026-04-17 06:57 | 22.64719 | 113.80306 | 21 ft | 12 kts | 333° |
| 2026-04-17 06:57 | 22.64795 | 113.80265 | 21 ft | 9 kts | 345° |
| 2026-04-17 06:58 | 22.64851 | 113.80306 | 21 ft | 10 kts | 45° |
| 2026-04-17 06:58 | 22.64920 | 113.80302 | 21 ft | 11 kts | 332° |
| 2026-04-17 06:58 | 22.64990 | 113.80263 | 21 ft | 8 kts | 333° |
| 2026-04-17 06:58 | 22.65044 | 113.80235 | 21 ft | 9 kts | 333° |
| 2026-04-17 06:59 | 22.65100 | 113.80204 | 21 ft | 5 kts | 333° |
| 2026-04-17 06:59 | 22.65138 | 113.80183 | 21 ft | 6 kts | 333° |
| 2026-04-17 06:59 | 22.65181 | 113.80160 | 21 ft | 5 kts | 335° |
| 2026-04-17 06:59 | 22.65214 | 113.80173 | 21 ft | 5 kts | 46° |
| 2026-04-17 07:00 | 22.65237 | 113.80214 | 21 ft | 6 kts | 64° |
| 2026-04-17 07:00 | 22.65260 | 113.80264 | 21 ft | 7 kts | 64° |
| 2026-04-17 07:00 | 22.65281 | 113.80313 | 21 ft | 5 kts | 75° |
| 2026-04-17 07:00 | 22.65257 | 113.80335 | 21 ft | 5 kts | 149° |
| 2026-04-17 07:01 | 22.65219 | 113.80356 | 21 ft | 7 kts | 153° |
| 2026-04-17 07:01 | 22.64984 | 113.80488 | 22 ft | 74 kts | 151° |
| 2026-04-17 07:01 | 22.64321 | 113.80847 | 22 ft | 136 kts | 153° |
| 2026-04-17 07:01 | 22.63353 | 113.81385 | 237 ft | 164 kts | 152° |
| 2026-04-17 07:02 | 22.62337 | 113.81995 | 731 ft | 171 kts | 152° |
| 2026-04-17 07:02 | 22.61309 | 113.82620 | 1383 ft | 171 kts | 152° |
| 2026-04-17 07:02 | 22.60281 | 113.83263 | 1978 ft | 175 kts | 152° |
| 2026-04-17 07:02 | 22.59172 | 113.83957 | 2311 ft | 189 kts | 152° |
| 2026-04-17 07:03 | 22.57987 | 113.84686 | 2619 ft | 205 kts | 152° |
| 2026-04-17 07:03 | 22.56638 | 113.85265 | 2942 ft | 218 kts | 175° |
| 2026-04-17 07:03 | 22.55105 | 113.84998 | 3291 ft | 233 kts | 203° |
| 2026-04-17 07:03 | 22.53586 | 113.84226 | 3788 ft | 245 kts | 208° |
| 2026-04-17 07:04 | 22.52050 | 113.83404 | 4468 ft | 249 kts | 207° |
| 2026-04-17 07:04 | 22.50499 | 113.82594 | 4980 ft | 261 kts | 208° |
| 2026-04-17 07:04 | 22.48827 | 113.81721 | 5653 ft | 267 kts | 208° |
| 2026-04-17 07:04 | 22.47156 | 113.80848 | 6386 ft | 270 kts | 208° |
| 2026-04-17 07:05 | 22.45442 | 113.79951 | 7164 ft | 272 kts | 208° |
| 2026-04-17 07:05 | 22.44053 | 113.79221 | 7806 ft | 273 kts | 208° |
| 2026-04-17 07:05 | 22.42358 | 113.78333 | 8582 ft | 273 kts | 208° |
| 2026-04-17 07:05 | 22.40673 | 113.77447 | 9324 ft | 274 kts | 208° |
| 2026-04-17 07:06 | 22.38985 | 113.76561 | 9970 ft | 278 kts | 209° |
| 2026-04-17 07:06 | 22.37232 | 113.75640 | 10533 ft | 286 kts | 209° |
| 2026-04-17 07:06 | 22.35411 | 113.74684 | 11106 ft | 293 kts | 209° |
| 2026-04-17 07:06 | 22.33536 | 113.73698 | 11490 ft | 307 kts | 209° |
| 2026-04-17 07:07 | 22.31556 | 113.72656 | 11785 ft | 324 kts | 209° |
| 2026-04-17 07:07 | 22.29441 | 113.71544 | 12110 ft | 339 kts | 209° |
| 2026-04-17 07:07 | 22.27296 | 113.70421 | 12657 ft | 346 kts | 209° |
| 2026-04-17 07:07 | 22.25111 | 113.69279 | 13287 ft | 349 kts | 210° |
| 2026-04-17 07:08 | 22.22918 | 113.68132 | 13905 ft | 352 kts | 210° |
| 2026-04-17 07:08 | 22.20708 | 113.66976 | 14545 ft | 354 kts | 210° |
| 2026-04-17 07:08 | 22.18489 | 113.65815 | 15163 ft | 356 kts | 210° |
| 2026-04-17 07:08 | 22.16237 | 113.64637 | 15765 ft | 357 kts | 210° |
| 2026-04-17 07:09 | 22.14023 | 113.63478 | 16349 ft | 359 kts | 210° |
| 2026-04-17 07:09 | 22.11752 | 113.62290 | 16926 ft | 360 kts | 210° |
| 2026-04-17 07:09 | 22.09489 | 113.61107 | 17490 ft | 361 kts | 210° |
| 2026-04-17 07:09 | 22.07222 | 113.59920 | 18041 ft | 362 kts | 210° |
| 2026-04-17 07:10 | 22.04961 | 113.58738 | 18559 ft | 364 kts | 210° |
| 2026-04-17 07:10 | 22.02650 | 113.57530 | 19071 ft | 366 kts | 210° |
| 2026-04-17 07:10 | 22.00316 | 113.56403 | 19550 ft | 371 kts | 203° |
| 2026-04-17 07:10 | 21.97815 | 113.55720 | 20010 ft | 378 kts | 193° |
| 2026-04-17 07:11 | 21.95138 | 113.55543 | 20456 ft | 386 kts | 183° |
| 2026-04-17 07:11 | 21.92444 | 113.55675 | 20915 ft | 389 kts | 181° |
| 2026-04-17 07:11 | 21.89712 | 113.55853 | 21356 ft | 392 kts | 181° |
| 2026-04-17 07:11 | 21.86980 | 113.56033 | 21789 ft | 394 kts | 181° |
| 2026-04-17 07:12 | 21.84221 | 113.56210 | 22202 ft | 396 kts | 181° |
| 2026-04-17 07:12 | 21.81450 | 113.56384 | 22613 ft | 399 kts | 181° |
| 2026-04-17 07:12 | 21.78659 | 113.56559 | 23027 ft | 401 kts | 181° |
| 2026-04-17 07:12 | 21.75881 | 113.56730 | 23410 ft | 404 kts | 181° |
| 2026-04-17 07:13 | 21.73022 | 113.56905 | 23801 ft | 407 kts | 181° |
| 2026-04-17 07:13 | 21.70179 | 113.57079 | 24181 ft | 409 kts | 181° |
| 2026-04-17 07:13 | 21.67347 | 113.57252 | 24539 ft | 412 kts | 182° |
| 2026-04-17 07:13 | 21.64448 | 113.57429 | 24899 ft | 415 kts | 182° |
| 2026-04-17 07:14 | 21.61586 | 113.57604 | 25237 ft | 418 kts | 182° |
| 2026-04-17 07:14 | 21.58661 | 113.57781 | 25573 ft | 420 kts | 182° |
| 2026-04-17 07:14 | 21.55714 | 113.58031 | 25900 ft | 426 kts | 178° |
| 2026-04-17 07:14 | 21.52791 | 113.58628 | 26223 ft | 433 kts | 171° |
| 2026-04-17 07:15 | 21.49900 | 113.59613 | 26527 ft | 440 kts | 163° |
| 2026-04-17 07:15 | 21.47058 | 113.60872 | 26845 ft | 444 kts | 162° |
| 2026-04-17 07:15 | 21.44181 | 113.62207 | 27147 ft | 447 kts | 161° |
| 2026-04-17 07:15 | 21.41353 | 113.63529 | 27436 ft | 449 kts | 161° |
| 2026-04-17 07:16 | 21.38455 | 113.64880 | 27725 ft | 451 kts | 161° |
| 2026-04-17 07:16 | 21.35551 | 113.66226 | 28014 ft | 454 kts | 161° |
| 2026-04-17 07:16 | 21.32644 | 113.67567 | 28293 ft | 456 kts | 161° |
| 2026-04-17 07:16 | 21.29747 | 113.68904 | 28577 ft | 458 kts | 162° |
| 2026-04-17 07:17 | 21.26806 | 113.70259 | 28945 ft | 458 kts | 162° |
| 2026-04-17 07:17 | 21.23881 | 113.71606 | 29329 ft | 457 kts | 162° |
| 2026-04-17 07:17 | 21.18043 | 113.74291 | 30107 ft | 455 kts | 162° |
| 2026-04-17 07:18 | 21.15136 | 113.75581 | 30482 ft | 452 kts | 165° |
| 2026-04-17 07:18 | 21.12152 | 113.76612 | 30859 ft | 447 kts | 170° |
| 2026-04-17 07:18 | 21.09128 | 113.77331 | 31233 ft | 442 kts | 176° |
| 2026-04-17 07:18 | 21.06087 | 113.77741 | 31586 ft | 437 kts | 181° |
| 2026-04-17 07:19 | 21.03072 | 113.77852 | 31935 ft | 432 kts | 186° |
| 2026-04-17 07:19 | 21.00057 | 113.77673 | 32270 ft | 428 kts | 191° |
| 2026-04-17 07:19 | 20.97097 | 113.77353 | 32579 ft | 427 kts | 191° |
| 2026-04-17 07:19 | 20.94169 | 113.77016 | 32905 ft | 426 kts | 191° |
| 2026-04-17 07:20 | 20.91200 | 113.76675 | 33240 ft | 425 kts | 192° |
| 2026-04-17 07:20 | 20.88245 | 113.76338 | 33586 ft | 424 kts | 191° |
| 2026-04-17 07:20 | 20.85334 | 113.76009 | 33924 ft | 423 kts | 191° |
| 2026-04-17 07:20 | 20.82350 | 113.75672 | 34243 ft | 422 kts | 191° |
| 2026-04-17 07:21 | 20.79442 | 113.75346 | 34496 ft | 423 kts | 191° |
| 2026-04-17 07:21 | 20.76531 | 113.75019 | 34710 ft | 423 kts | 191° |
| 2026-04-17 07:21 | 20.73579 | 113.74688 | 34915 ft | 424 kts | 191° |
| 2026-04-17 07:21 | 20.70644 | 113.74359 | 35120 ft | 425 kts | 191° |
| 2026-04-17 07:22 | 20.67697 | 113.74030 | 35323 ft | 426 kts | 191° |
| 2026-04-17 07:22 | 20.64725 | 113.73698 | 35515 ft | 426 kts | 191° |
| 2026-04-17 07:22 | 20.61786 | 113.73370 | 35701 ft | 427 kts | 191° |
| 2026-04-17 07:22 | 20.58801 | 113.73038 | 35870 ft | 427 kts | 191° |
| 2026-04-17 07:23 | 20.52838 | 113.72373 | 35912 ft | 429 kts | 191° |
| 2026-04-17 07:23 | 20.46892 | 113.71712 | 35914 ft | 429 kts | 191° |
| 2026-04-17 07:24 | 20.40965 | 113.71052 | 35912 ft | 430 kts | 191° |
| 2026-04-17 07:24 | 20.34985 | 113.70387 | 35914 ft | 430 kts | 191° |
| 2026-04-17 07:25 | 20.29008 | 113.69723 | 35914 ft | 431 kts | 191° |
| 2026-04-17 07:25 | 20.23036 | 113.69061 | 35914 ft | 431 kts | 191° |
| 2026-04-17 07:26 | 20.17052 | 113.68398 | 35914 ft | 431 kts | 191° |
| 2026-04-17 07:26 | 20.11071 | 113.67734 | 35913 ft | 431 kts | 191° |
| 2026-04-17 07:27 | 20.05087 | 113.67072 | 35913 ft | 432 kts | 191° |
| 2026-04-17 07:27 | 19.99096 | 113.66409 | 35915 ft | 432 kts | 191° |
| 2026-04-17 07:28 | 19.93100 | 113.65746 | 35914 ft | 432 kts | 191° |
| 2026-04-17 07:28 | 19.87108 | 113.65084 | 35917 ft | 432 kts | 191° |
| 2026-04-17 07:29 | 19.81101 | 113.64421 | 35923 ft | 432 kts | 191° |
| 2026-04-17 07:29 | 19.75110 | 113.63760 | 35919 ft | 432 kts | 191° |
| 2026-04-17 07:30 | 19.69113 | 113.63100 | 35923 ft | 433 kts | 191° |
| 2026-04-17 07:30 | 19.63113 | 113.62438 | 35917 ft | 433 kts | 191° |
| 2026-04-17 07:31 | 19.57101 | 113.61777 | 35915 ft | 433 kts | 191° |
| 2026-04-17 07:31 | 19.51103 | 113.61118 | 35911 ft | 433 kts | 191° |
| 2026-04-17 07:32 | 19.45031 | 113.60450 | 35914 ft | 438 kts | 190° |
| 2026-04-17 07:32 | 19.38982 | 113.59784 | 35915 ft | 439 kts | 190° |
| 2026-04-17 07:33 | 19.32867 | 113.59114 | 35919 ft | 440 kts | 190° |
| 2026-04-17 07:33 | 19.26758 | 113.58446 | 35916 ft | 439 kts | 190° |
| 2026-04-17 07:34 | 19.20654 | 113.57778 | 35920 ft | 440 kts | 190° |
| 2026-04-17 07:34 | 19.14559 | 113.57111 | 35922 ft | 440 kts | 190° |
| 2026-04-17 07:35 | 19.08494 | 113.56449 | 35924 ft | 440 kts | 190° |
| 2026-04-17 07:35 | 19.02389 | 113.55782 | 35923 ft | 440 kts | 190° |
| 2026-04-17 07:36 | 18.96299 | 113.55034 | 35924 ft | 439 kts | 192° |
| 2026-04-17 07:36 | 18.90210 | 113.54137 | 35921 ft | 440 kts | 192° |
| 2026-04-17 07:37 | 18.84121 | 113.53251 | 35916 ft | 440 kts | 192° |
| 2026-04-17 07:37 | 18.78051 | 113.52381 | 35915 ft | 440 kts | 192° |
| 2026-04-17 07:38 | 18.72007 | 113.51518 | 35915 ft | 440 kts | 192° |
| 2026-04-17 07:38 | 18.65923 | 113.50652 | 35915 ft | 440 kts | 192° |
| 2026-04-17 07:39 | 18.59951 | 113.49380 | 35915 ft | 437 kts | 200° |
| 2026-04-17 07:39 | 18.54226 | 113.47132 | 35915 ft | 436 kts | 209° |
| 2026-04-17 07:40 | 18.48944 | 113.43983 | 35915 ft | 435 kts | 218° |
| 2026-04-17 07:40 | 18.44062 | 113.40269 | 35915 ft | 435 kts | 219° |
| 2026-04-17 07:41 | 18.39171 | 113.36489 | 35915 ft | 436 kts | 220° |
| 2026-04-17 07:41 | 18.34254 | 113.32695 | 35916 ft | 436 kts | 219° |
| 2026-04-17 07:42 | 18.29327 | 113.28900 | 35915 ft | 436 kts | 219° |
| 2026-04-17 07:42 | 18.24443 | 113.25143 | 35915 ft | 436 kts | 219° |
| 2026-04-17 07:43 | 18.19510 | 113.21350 | 35915 ft | 437 kts | 219° |
| 2026-04-17 07:43 | 18.14613 | 113.17590 | 35915 ft | 436 kts | 219° |
| 2026-04-17 07:44 | 18.09709 | 113.13825 | 35914 ft | 436 kts | 219° |
| 2026-04-17 07:44 | 18.04808 | 113.10066 | 35907 ft | 436 kts | 219° |
| 2026-04-17 07:45 | 17.99895 | 113.06300 | 35899 ft | 437 kts | 219° |
| 2026-04-17 07:45 | 17.94991 | 113.02541 | 35896 ft | 437 kts | 219° |
| 2026-04-17 07:46 | 17.90075 | 112.98778 | 35895 ft | 436 kts | 219° |
| 2026-04-17 07:46 | 17.85148 | 112.95004 | 35894 ft | 436 kts | 219° |
| 2026-04-17 07:47 | 17.80278 | 112.91181 | 35894 ft | 436 kts | 220° |
| 2026-04-17 07:47 | 17.75413 | 112.87347 | 35894 ft | 437 kts | 220° |
| 2026-04-17 07:48 | 17.70555 | 112.83525 | 35894 ft | 437 kts | 220° |
| 2026-04-17 07:48 | 17.65683 | 112.79697 | 35894 ft | 437 kts | 220° |
| 2026-04-17 07:49 | 17.60811 | 112.75874 | 35894 ft | 437 kts | 220° |
| 2026-04-17 07:49 | 17.55932 | 112.72047 | 35894 ft | 437 kts | 220° |
| 2026-04-17 07:50 | 17.51056 | 112.68225 | 35894 ft | 437 kts | 220° |
| 2026-04-17 07:50 | 17.46167 | 112.64397 | 35894 ft | 437 kts | 220° |
| 2026-04-17 07:51 | 17.41318 | 112.60599 | 35894 ft | 437 kts | 220° |
| 2026-04-17 07:51 | 17.36403 | 112.56756 | 35894 ft | 437 kts | 220° |
| 2026-04-17 07:52 | 17.31500 | 112.52923 | 35894 ft | 437 kts | 220° |
| 2026-04-17 07:52 | 17.26654 | 112.49137 | 35894 ft | 437 kts | 220° |
| 2026-04-17 07:53 | 17.21764 | 112.45321 | 35894 ft | 437 kts | 220° |
| 2026-04-17 07:53 | 17.16869 | 112.41503 | 35890 ft | 437 kts | 220° |
| 2026-04-17 07:54 | 17.12016 | 112.37721 | 35886 ft | 437 kts | 220° |
| 2026-04-17 07:54 | 17.07137 | 112.33919 | 35885 ft | 437 kts | 219° |
| 2026-04-17 07:55 | 17.02236 | 112.30103 | 35882 ft | 437 kts | 219° |
| 2026-04-17 07:55 | 16.97363 | 112.26344 | 35880 ft | 437 kts | 219° |
| 2026-04-17 07:56 | 16.92427 | 112.22607 | 35879 ft | 437 kts | 219° |
| 2026-04-17 07:56 | 16.87496 | 112.18877 | 35879 ft | 437 kts | 219° |
| 2026-04-17 07:57 | 16.82550 | 112.15131 | 35877 ft | 437 kts | 219° |
| 2026-04-17 07:57 | 16.77627 | 112.11405 | 35877 ft | 437 kts | 219° |
| 2026-04-17 07:58 | 16.72692 | 112.07671 | 35874 ft | 437 kts | 219° |
| 2026-04-17 07:58 | 16.67760 | 112.03940 | 35874 ft | 437 kts | 219° |
| 2026-04-17 07:59 | 16.62830 | 112.00214 | 35874 ft | 437 kts | 219° |
| 2026-04-17 07:59 | 16.57867 | 111.96465 | 35873 ft | 437 kts | 219° |
| 2026-04-17 08:00 | 16.52938 | 111.92745 | 35874 ft | 437 kts | 219° |
| 2026-04-17 08:00 | 16.47977 | 111.89002 | 35874 ft | 437 kts | 219° |
| 2026-04-17 08:01 | 16.43044 | 111.85284 | 35874 ft | 437 kts | 219° |
| 2026-04-17 08:01 | 16.38115 | 111.81570 | 35874 ft | 437 kts | 219° |
| 2026-04-17 08:02 | 16.33166 | 111.77845 | 35874 ft | 437 kts | 219° |
| 2026-04-17 08:02 | 16.28255 | 111.74150 | 35875 ft | 437 kts | 219° |
| 2026-04-17 08:03 | 16.23335 | 111.70450 | 35878 ft | 437 kts | 219° |
| 2026-04-17 08:03 | 16.18398 | 111.66740 | 35881 ft | 437 kts | 219° |
| 2026-04-17 08:04 | 16.13445 | 111.63020 | 35886 ft | 437 kts | 219° |
| 2026-04-17 08:04 | 16.08503 | 111.59310 | 35888 ft | 437 kts | 219° |
| 2026-04-17 08:05 | 16.03576 | 111.55614 | 35891 ft | 437 kts | 219° |
| 2026-04-17 08:05 | 15.98602 | 111.51886 | 35889 ft | 437 kts | 219° |
| 2026-04-17 08:06 | 15.93686 | 111.48203 | 35888 ft | 437 kts | 219° |
| 2026-04-17 08:06 | 15.88730 | 111.44494 | 35886 ft | 437 kts | 219° |
| 2026-04-17 08:07 | 15.83785 | 111.40794 | 35883 ft | 437 kts | 219° |
| 2026-04-17 08:07 | 15.78832 | 111.37089 | 35883 ft | 437 kts | 219° |
| 2026-04-17 08:08 | 15.73898 | 111.33401 | 35883 ft | 437 kts | 218° |
| 2026-04-17 08:08 | 15.68942 | 111.29700 | 35879 ft | 437 kts | 218° |
| 2026-04-17 08:09 | 15.63999 | 111.26012 | 35881 ft | 437 kts | 219° |
| 2026-04-17 08:09 | 15.59037 | 111.22310 | 35880 ft | 437 kts | 218° |
| 2026-04-17 08:10 | 15.54095 | 111.18626 | 35879 ft | 437 kts | 218° |
| 2026-04-17 08:10 | 15.49151 | 111.14941 | 35877 ft | 437 kts | 218° |
| 2026-04-17 08:11 | 15.44176 | 111.11236 | 35874 ft | 437 kts | 218° |
| 2026-04-17 08:11 | 15.39369 | 111.07659 | 35868 ft | 437 kts | 218° |
| 2026-04-17 08:12 | 15.34427 | 111.03973 | 35871 ft | 437 kts | 219° |
| 2026-04-17 08:12 | 15.29527 | 111.00249 | 35876 ft | 437 kts | 219° |
| 2026-04-17 08:13 | 15.24558 | 110.96467 | 35873 ft | 438 kts | 219° |
| 2026-04-17 08:14 | 15.17198 | 110.90874 | 35877 ft | 437 kts | 219° |
| 2026-04-17 08:14 | 15.12284 | 110.87144 | 35873 ft | 437 kts | 219° |
| 2026-04-17 08:15 | 15.07389 | 110.83433 | 35872 ft | 437 kts | 219° |
| 2026-04-17 08:15 | 15.02448 | 110.79688 | 35872 ft | 438 kts | 219° |
| 2026-04-17 08:16 | 14.97540 | 110.75970 | 35871 ft | 438 kts | 219° |
| 2026-04-17 08:16 | 14.92594 | 110.72225 | 35867 ft | 438 kts | 219° |
| 2026-04-17 08:17 | 14.87702 | 110.68525 | 35868 ft | 438 kts | 219° |
| 2026-04-17 08:17 | 14.82765 | 110.64792 | 35867 ft | 437 kts | 219° |
| 2026-04-17 08:18 | 14.77813 | 110.61050 | 35867 ft | 438 kts | 219° |
| 2026-04-17 08:18 | 14.72886 | 110.57328 | 35866 ft | 438 kts | 219° |
| 2026-04-17 08:19 | 14.67969 | 110.53616 | 35862 ft | 439 kts | 219° |
| 2026-04-17 08:19 | 14.63021 | 110.49883 | 35862 ft | 439 kts | 219° |
| 2026-04-17 08:20 | 14.58089 | 110.46165 | 35860 ft | 439 kts | 219° |
| 2026-04-17 08:20 | 14.53148 | 110.42442 | 35857 ft | 439 kts | 219° |
| 2026-04-17 08:21 | 14.48211 | 110.38723 | 35858 ft | 439 kts | 219° |
| 2026-04-17 08:21 | 14.43275 | 110.35008 | 35856 ft | 440 kts | 219° |
| 2026-04-17 08:22 | 14.38303 | 110.31267 | 35854 ft | 440 kts | 219° |
| 2026-04-17 08:22 | 14.33333 | 110.27531 | 35855 ft | 441 kts | 218° |
| 2026-04-17 08:23 | 14.28407 | 110.23830 | 35852 ft | 441 kts | 219° |
| 2026-04-17 08:23 | 14.23446 | 110.20104 | 35855 ft | 441 kts | 218° |
| 2026-04-17 08:24 | 14.18454 | 110.16355 | 35853 ft | 441 kts | 218° |
| 2026-04-17 08:24 | 14.13522 | 110.12656 | 35855 ft | 441 kts | 218° |
| 2026-04-17 08:25 | 14.08526 | 110.08910 | 35852 ft | 441 kts | 218° |
| 2026-04-17 08:25 | 14.03558 | 110.05188 | 35848 ft | 441 kts | 218° |
| 2026-04-17 08:26 | 13.98581 | 110.01459 | 35841 ft | 442 kts | 218° |
| 2026-04-17 08:26 | 13.93448 | 109.97945 | 35838 ft | 444 kts | 214° |
| 2026-04-17 08:27 | 13.88203 | 109.94572 | 35832 ft | 443 kts | 214° |
| 2026-04-17 08:27 | 13.82964 | 109.91203 | 35840 ft | 443 kts | 214° |
| 2026-04-17 08:28 | 13.77699 | 109.87820 | 35847 ft | 443 kts | 214° |
| 2026-04-17 08:28 | 13.72477 | 109.84463 | 35848 ft | 443 kts | 214° |
| 2026-04-17 08:29 | 13.67261 | 109.81112 | 35847 ft | 444 kts | 214° |
| 2026-04-17 08:29 | 13.62002 | 109.77736 | 35844 ft | 444 kts | 214° |
| 2026-04-17 08:30 | 13.56754 | 109.74367 | 35841 ft | 444 kts | 214° |
| 2026-04-17 08:30 | 13.51507 | 109.71002 | 35838 ft | 444 kts | 214° |
| 2026-04-17 08:31 | 13.46266 | 109.67641 | 35831 ft | 444 kts | 214° |
| 2026-04-17 08:31 | 13.41023 | 109.64281 | 35833 ft | 444 kts | 214° |
| 2026-04-17 08:32 | 13.35759 | 109.60912 | 35833 ft | 444 kts | 214° |
| 2026-04-17 08:32 | 13.30494 | 109.57541 | 35830 ft | 445 kts | 214° |
| 2026-04-17 08:33 | 13.25250 | 109.54187 | 35832 ft | 445 kts | 214° |
| 2026-04-17 08:33 | 13.19958 | 109.50802 | 35826 ft | 445 kts | 214° |
| 2026-04-17 08:34 | 13.14699 | 109.47441 | 35820 ft | 445 kts | 214° |
| 2026-04-17 08:34 | 13.09422 | 109.44070 | 35823 ft | 445 kts | 214° |
| 2026-04-17 08:35 | 13.04164 | 109.40713 | 35816 ft | 446 kts | 214° |
| 2026-04-17 08:35 | 12.98889 | 109.37347 | 35818 ft | 446 kts | 214° |
| 2026-04-17 08:36 | 12.93592 | 109.33970 | 35829 ft | 446 kts | 213° |
| 2026-04-17 08:36 | 12.88306 | 109.30598 | 35837 ft | 447 kts | 214° |
| 2026-04-17 08:37 | 12.83012 | 109.27226 | 35847 ft | 446 kts | 214° |
| 2026-04-17 08:37 | 12.77744 | 109.23871 | 35858 ft | 446 kts | 214° |
| 2026-04-17 08:38 | 12.72449 | 109.20499 | 35873 ft | 446 kts | 213° |
| 2026-04-17 08:38 | 12.67159 | 109.17134 | 35881 ft | 447 kts | 214° |
| 2026-04-17 08:39 | 12.61862 | 109.13769 | 35880 ft | 447 kts | 213° |
| 2026-04-17 08:39 | 12.56570 | 109.10409 | 35875 ft | 447 kts | 214° |
| 2026-04-17 08:40 | 12.51299 | 109.07064 | 35860 ft | 448 kts | 214° |
| 2026-04-17 08:40 | 12.45979 | 109.03690 | 35840 ft | 447 kts | 214° |
| 2026-04-17 08:41 | 12.40685 | 109.00333 | 35837 ft | 447 kts | 214° |
| 2026-04-17 08:41 | 12.35409 | 108.96989 | 35854 ft | 447 kts | 214° |
| 2026-04-17 08:42 | 12.30098 | 108.93626 | 35883 ft | 448 kts | 214° |
| 2026-04-17 08:42 | 12.24801 | 108.90272 | 35903 ft | 448 kts | 214° |
| 2026-04-17 08:43 | 12.19457 | 108.86889 | 35931 ft | 449 kts | 214° |
| 2026-04-17 08:43 | 12.14147 | 108.83530 | 35951 ft | 448 kts | 214° |
| 2026-04-17 08:44 | 12.08830 | 108.80168 | 35959 ft | 447 kts | 214° |
| 2026-04-17 08:44 | 12.03545 | 108.76829 | 35962 ft | 447 kts | 214° |
| 2026-04-17 08:45 | 11.98260 | 108.73491 | 35963 ft | 448 kts | 214° |
| 2026-04-17 08:45 | 11.92931 | 108.70126 | 35961 ft | 448 kts | 214° |
| 2026-04-17 08:46 | 11.87642 | 108.66788 | 35957 ft | 449 kts | 214° |
| 2026-04-17 08:46 | 11.82309 | 108.63423 | 35953 ft | 449 kts | 214° |
| 2026-04-17 08:47 | 11.76969 | 108.60059 | 35954 ft | 449 kts | 214° |
| 2026-04-17 08:47 | 11.71676 | 108.56725 | 35955 ft | 448 kts | 214° |
| 2026-04-17 08:48 | 11.66346 | 108.53370 | 35967 ft | 448 kts | 214° |
| 2026-04-17 08:48 | 11.61032 | 108.50026 | 35966 ft | 449 kts | 214° |
| 2026-04-17 08:49 | 11.55714 | 108.46679 | 35959 ft | 449 kts | 214° |
| 2026-04-17 08:49 | 11.50394 | 108.43333 | 35941 ft | 449 kts | 214° |
| 2026-04-17 08:50 | 11.45052 | 108.39976 | 35927 ft | 449 kts | 214° |
| 2026-04-17 08:50 | 11.39717 | 108.36623 | 35911 ft | 449 kts | 214° |
| 2026-04-17 08:51 | 11.34388 | 108.33279 | 35891 ft | 449 kts | 213° |
| 2026-04-17 08:51 | 11.29049 | 108.29927 | 35875 ft | 449 kts | 214° |
| 2026-04-17 08:52 | 11.23730 | 108.26590 | 35862 ft | 449 kts | 214° |
| 2026-04-17 08:52 | 11.18429 | 108.23265 | 35858 ft | 449 kts | 214° |
| 2026-04-17 08:53 | 11.13083 | 108.19913 | 35860 ft | 449 kts | 214° |
| 2026-04-17 08:53 | 11.07749 | 108.16570 | 35860 ft | 449 kts | 213° |
| 2026-04-17 08:54 | 11.02422 | 108.13233 | 35857 ft | 449 kts | 213° |
| 2026-04-17 08:54 | 10.97110 | 108.09908 | 35852 ft | 449 kts | 213° |
| 2026-04-17 08:55 | 10.91775 | 108.06557 | 35846 ft | 449 kts | 214° |
| 2026-04-17 08:55 | 10.86544 | 108.03088 | 35844 ft | 449 kts | 216° |
| 2026-04-17 08:56 | 10.81341 | 107.99611 | 35840 ft | 448 kts | 216° |
| 2026-04-17 08:56 | 10.76116 | 107.96131 | 35843 ft | 448 kts | 215° |
| 2026-04-17 08:57 | 10.70873 | 107.92646 | 35841 ft | 448 kts | 215° |
| 2026-04-17 08:57 | 10.65675 | 107.89198 | 35837 ft | 448 kts | 215° |
| 2026-04-17 08:58 | 10.60421 | 107.85714 | 35833 ft | 449 kts | 215° |
| 2026-04-17 08:58 | 10.55189 | 107.82245 | 35826 ft | 449 kts | 215° |
| 2026-04-17 08:59 | 10.49947 | 107.78770 | 35823 ft | 449 kts | 215° |
| 2026-04-17 08:59 | 10.44692 | 107.75291 | 35821 ft | 449 kts | 215° |
| 2026-04-17 09:00 | 10.39481 | 107.71854 | 35820 ft | 448 kts | 215° |
| 2026-04-17 09:00 | 10.34244 | 107.68404 | 35817 ft | 448 kts | 215° |
| 2026-04-17 09:01 | 10.28985 | 107.64938 | 35813 ft | 448 kts | 215° |
| 2026-04-17 09:01 | 10.23756 | 107.61494 | 35808 ft | 449 kts | 215° |
| 2026-04-17 09:02 | 10.18489 | 107.58025 | 35807 ft | 450 kts | 215° |
| 2026-04-17 09:02 | 10.13218 | 107.54556 | 35813 ft | 449 kts | 215° |
| 2026-04-17 09:03 | 10.08006 | 107.51120 | 35824 ft | 448 kts | 215° |
| 2026-04-17 09:03 | 10.02743 | 107.47649 | 35829 ft | 448 kts | 215° |
| 2026-04-17 09:04 | 9.97505 | 107.44192 | 35831 ft | 448 kts | 215° |
| 2026-04-17 09:04 | 9.92278 | 107.40748 | 35833 ft | 448 kts | 215° |
| 2026-04-17 09:05 | 9.87049 | 107.37302 | 35835 ft | 448 kts | 215° |
| 2026-04-17 09:05 | 9.81802 | 107.33846 | 35837 ft | 448 kts | 215° |
| 2026-04-17 09:06 | 9.76583 | 107.30411 | 35837 ft | 448 kts | 215° |
| 2026-04-17 09:06 | 9.71330 | 107.26953 | 35832 ft | 449 kts | 215° |
| 2026-04-17 09:07 | 9.66088 | 107.23505 | 35823 ft | 450 kts | 214° |
| 2026-04-17 09:07 | 9.60810 | 107.20034 | 35821 ft | 450 kts | 215° |
| 2026-04-17 09:08 | 9.55579 | 107.16595 | 35822 ft | 450 kts | 214° |
| 2026-04-17 09:08 | 9.50310 | 107.13134 | 35823 ft | 450 kts | 214° |
| 2026-04-17 09:09 | 9.45055 | 107.09682 | 35823 ft | 449 kts | 214° |
| 2026-04-17 09:09 | 9.39806 | 107.06236 | 35825 ft | 449 kts | 214° |
| 2026-04-17 09:10 | 9.31908 | 107.01052 | 35823 ft | 450 kts | 214° |
| 2026-04-17 09:10 | 9.26679 | 106.97621 | 35824 ft | 450 kts | 214° |
| 2026-04-17 09:11 | 9.21397 | 106.94157 | 35826 ft | 450 kts | 214° |
| 2026-04-17 09:11 | 9.16135 | 106.90707 | 35828 ft | 450 kts | 214° |
| 2026-04-17 09:12 | 9.10900 | 106.87277 | 35831 ft | 450 kts | 214° |
| 2026-04-17 09:12 | 9.05631 | 106.83826 | 35832 ft | 450 kts | 214° |
| 2026-04-17 09:13 | 9.00371 | 106.80383 | 35832 ft | 450 kts | 214° |
| 2026-04-17 09:13 | 8.95115 | 106.76942 | 35831 ft | 450 kts | 214° |
| 2026-04-17 09:14 | 8.89850 | 106.73495 | 35835 ft | 449 kts | 215° |
| 2026-04-17 09:14 | 8.84574 | 106.70043 | 35841 ft | 450 kts | 214° |
| 2026-04-17 09:15 | 8.79308 | 106.66599 | 35843 ft | 450 kts | 214° |
| 2026-04-17 09:15 | 8.74031 | 106.63149 | 35844 ft | 449 kts | 214° |
| 2026-04-17 09:16 | 8.68726 | 106.59795 | 35844 ft | 449 kts | 213° |
| 2026-04-17 09:16 | 8.63370 | 106.56486 | 35844 ft | 450 kts | 213° |
| 2026-04-17 09:17 | 8.58043 | 106.53190 | 35846 ft | 449 kts | 213° |
| 2026-04-17 09:17 | 8.52692 | 106.49871 | 35846 ft | 449 kts | 213° |
| 2026-04-17 09:18 | 8.47375 | 106.46571 | 35846 ft | 450 kts | 213° |
| 2026-04-17 09:18 | 8.42018 | 106.43248 | 35847 ft | 450 kts | 213° |
| 2026-04-17 09:19 | 8.36697 | 106.39948 | 35843 ft | 449 kts | 213° |
| 2026-04-17 09:19 | 8.31341 | 106.36627 | 35837 ft | 449 kts | 213° |
| 2026-04-17 09:20 | 8.26008 | 106.33322 | 35834 ft | 449 kts | 213° |
| 2026-04-17 09:20 | 8.20659 | 106.30006 | 35832 ft | 449 kts | 213° |
| 2026-04-17 09:21 | 8.15329 | 106.26706 | 35834 ft | 449 kts | 213° |
| 2026-04-17 09:21 | 8.09982 | 106.23395 | 35832 ft | 449 kts | 213° |
| 2026-04-17 09:22 | 8.04636 | 106.20086 | 35832 ft | 449 kts | 213° |
| 2026-04-17 09:22 | 7.99336 | 106.16805 | 35834 ft | 449 kts | 213° |
| 2026-04-17 09:23 | 7.93973 | 106.13488 | 35833 ft | 449 kts | 213° |
| 2026-04-17 09:23 | 7.88664 | 106.10204 | 35833 ft | 449 kts | 213° |
| 2026-04-17 09:24 | 7.83316 | 106.06898 | 35833 ft | 448 kts | 213° |
| 2026-04-17 09:24 | 7.77991 | 106.03607 | 35833 ft | 448 kts | 213° |
| 2026-04-17 09:25 | 7.72672 | 106.00320 | 35831 ft | 448 kts | 213° |
| 2026-04-17 09:25 | 7.67362 | 105.97041 | 35833 ft | 448 kts | 213° |
| 2026-04-17 09:26 | 7.62028 | 105.93746 | 35834 ft | 448 kts | 213° |
| 2026-04-17 09:26 | 7.56711 | 105.90463 | 35833 ft | 448 kts | 213° |
| 2026-04-17 09:27 | 7.51383 | 105.87175 | 35832 ft | 448 kts | 212° |
| 2026-04-17 09:27 | 7.46065 | 105.83894 | 35832 ft | 448 kts | 213° |
| 2026-04-17 09:28 | 7.40761 | 105.80623 | 35834 ft | 448 kts | 213° |
| 2026-04-17 09:28 | 7.35407 | 105.77322 | 35838 ft | 447 kts | 213° |
| 2026-04-17 09:29 | 7.30091 | 105.74046 | 35843 ft | 447 kts | 213° |
| 2026-04-17 09:29 | 7.24766 | 105.70763 | 35844 ft | 447 kts | 213° |
| 2026-04-17 09:30 | 7.19431 | 105.67476 | 35846 ft | 447 kts | 213° |
| 2026-04-17 09:30 | 7.14108 | 105.64197 | 35849 ft | 447 kts | 213° |
| 2026-04-17 09:31 | 7.08803 | 105.60930 | 35853 ft | 448 kts | 212° |
| 2026-04-17 09:31 | 7.03483 | 105.57655 | 35853 ft | 448 kts | 212° |
| 2026-04-17 09:32 | 6.98043 | 105.54514 | 35853 ft | 449 kts | 208° |
| 2026-04-17 09:32 | 6.92467 | 105.51667 | 35850 ft | 448 kts | 208° |
| 2026-04-17 09:33 | 6.86876 | 105.48826 | 35852 ft | 447 kts | 208° |
| 2026-04-17 09:33 | 6.81316 | 105.45998 | 35847 ft | 448 kts | 208° |
| 2026-04-17 09:34 | 6.75760 | 105.43172 | 35848 ft | 449 kts | 208° |
| 2026-04-17 09:34 | 6.70161 | 105.40324 | 35840 ft | 449 kts | 208° |
| 2026-04-17 09:35 | 6.64587 | 105.37489 | 35833 ft | 449 kts | 208° |
| 2026-04-17 09:35 | 6.58993 | 105.34645 | 35833 ft | 449 kts | 208° |
| 2026-04-17 09:36 | 6.53418 | 105.31813 | 35833 ft | 449 kts | 208° |
| 2026-04-17 09:36 | 6.47817 | 105.28968 | 35831 ft | 448 kts | 208° |
| 2026-04-17 09:37 | 6.42226 | 105.26128 | 35829 ft | 448 kts | 208° |
| 2026-04-17 09:37 | 6.36676 | 105.23309 | 35825 ft | 448 kts | 208° |
| 2026-04-17 09:38 | 6.31078 | 105.20466 | 35830 ft | 449 kts | 208° |
| 2026-04-17 09:38 | 6.25489 | 105.17628 | 35829 ft | 449 kts | 208° |
| 2026-04-17 09:39 | 6.19916 | 105.14801 | 35828 ft | 449 kts | 208° |
| 2026-04-17 09:39 | 6.14337 | 105.11970 | 35832 ft | 449 kts | 208° |
| 2026-04-17 09:40 | 6.08722 | 105.09123 | 35829 ft | 449 kts | 208° |
| 2026-04-17 09:40 | 6.03127 | 105.06285 | 35831 ft | 449 kts | 208° |
| 2026-04-17 09:41 | 5.97536 | 105.03451 | 35831 ft | 449 kts | 208° |
| 2026-04-17 09:41 | 5.91948 | 105.00619 | 35833 ft | 449 kts | 208° |
| 2026-04-17 09:42 | 5.86336 | 104.97773 | 35834 ft | 449 kts | 208° |
| 2026-04-17 09:42 | 5.80733 | 104.94932 | 35832 ft | 449 kts | 208° |
| 2026-04-17 09:43 | 5.75173 | 104.92115 | 35835 ft | 448 kts | 207° |
| 2026-04-17 09:43 | 5.69607 | 104.89298 | 35833 ft | 448 kts | 207° |
| 2026-04-17 09:44 | 5.64035 | 104.86478 | 35834 ft | 448 kts | 207° |
| 2026-04-17 09:44 | 5.58466 | 104.83659 | 35832 ft | 448 kts | 207° |
| 2026-04-17 09:45 | 5.52857 | 104.80820 | 35833 ft | 448 kts | 207° |
| 2026-04-17 09:45 | 5.47291 | 104.78003 | 35835 ft | 449 kts | 207° |
| 2026-04-17 09:46 | 5.41711 | 104.75180 | 35833 ft | 449 kts | 207° |
| 2026-04-17 09:46 | 5.36090 | 104.72337 | 35836 ft | 449 kts | 207° |
| 2026-04-17 09:47 | 5.30507 | 104.69514 | 35838 ft | 450 kts | 207° |
| 2026-04-17 09:47 | 5.24922 | 104.66691 | 35834 ft | 450 kts | 207° |
| 2026-04-17 09:48 | 5.19321 | 104.63860 | 35831 ft | 450 kts | 207° |
| 2026-04-17 09:48 | 5.13705 | 104.61021 | 35830 ft | 451 kts | 207° |
| 2026-04-17 09:49 | 5.08087 | 104.58183 | 35827 ft | 451 kts | 207° |
| 2026-04-17 09:49 | 5.02469 | 104.55345 | 35826 ft | 451 kts | 207° |
| 2026-04-17 09:50 | 4.96874 | 104.52521 | 35819 ft | 451 kts | 207° |
| 2026-04-17 09:50 | 4.91053 | 104.50043 | 35819 ft | 451 kts | 198° |
| 2026-04-17 09:51 | 4.84905 | 104.48706 | 35819 ft | 452 kts | 187° |
| 2026-04-17 09:51 | 4.78636 | 104.48562 | 35822 ft | 453 kts | 176° |
| 2026-04-17 09:52 | 4.72330 | 104.49291 | 35823 ft | 454 kts | 173° |
| 2026-04-17 09:52 | 4.66044 | 104.50107 | 35825 ft | 454 kts | 173° |
| 2026-04-17 09:53 | 4.59746 | 104.50913 | 35831 ft | 454 kts | 173° |
| 2026-04-17 09:53 | 4.53469 | 104.51708 | 35831 ft | 454 kts | 173° |
| 2026-04-17 09:54 | 4.47210 | 104.52499 | 35831 ft | 454 kts | 173° |
| 2026-04-17 09:54 | 4.40903 | 104.53297 | 35831 ft | 455 kts | 173° |
| 2026-04-17 09:55 | 4.34607 | 104.54092 | 35831 ft | 455 kts | 173° |
| 2026-04-17 09:55 | 4.28284 | 104.54893 | 35831 ft | 455 kts | 173° |
| 2026-04-17 09:56 | 4.22004 | 104.55686 | 35832 ft | 454 kts | 173° |
| 2026-04-17 09:56 | 4.15715 | 104.56357 | 35831 ft | 453 kts | 174° |
| 2026-04-17 09:57 | 4.09430 | 104.56947 | 35831 ft | 453 kts | 174° |
| 2026-04-17 09:57 | 4.03156 | 104.57551 | 35832 ft | 453 kts | 174° |
| 2026-04-17 09:58 | 3.96846 | 104.58168 | 35832 ft | 454 kts | 174° |
| 2026-04-17 09:58 | 3.90518 | 104.58790 | 35832 ft | 454 kts | 174° |
| 2026-04-17 09:59 | 3.84183 | 104.59413 | 35833 ft | 454 kts | 174° |
| 2026-04-17 09:59 | 3.81044 | 104.59720 | 35650 ft | 454 kts | 174° |
| 2026-04-17 09:59 | 3.77915 | 104.60027 | 35363 ft | 452 kts | 174° |
| 2026-04-17 10:00 | 3.74790 | 104.60331 | 35073 ft | 449 kts | 174° |
| 2026-04-17 10:00 | 3.71686 | 104.60632 | 34782 ft | 446 kts | 174° |
| 2026-04-17 10:00 | 3.68563 | 104.60936 | 34492 ft | 445 kts | 174° |
| 2026-04-17 10:00 | 3.65462 | 104.61239 | 34204 ft | 446 kts | 174° |
| 2026-04-17 10:01 | 3.62355 | 104.61543 | 33914 ft | 447 kts | 174° |
| 2026-04-17 10:01 | 3.59269 | 104.61846 | 33629 ft | 448 kts | 174° |
| 2026-04-17 10:01 | 3.56135 | 104.62155 | 33341 ft | 449 kts | 174° |
| 2026-04-17 10:01 | 3.53040 | 104.62460 | 33057 ft | 451 kts | 174° |
| 2026-04-17 10:02 | 3.49890 | 104.62769 | 32770 ft | 452 kts | 174° |
| 2026-04-17 10:02 | 3.46769 | 104.63075 | 32492 ft | 453 kts | 174° |
| 2026-04-17 10:02 | 3.43605 | 104.63385 | 32244 ft | 454 kts | 174° |
| 2026-04-17 10:02 | 3.40432 | 104.63696 | 31996 ft | 454 kts | 174° |
| 2026-04-17 10:03 | 3.37271 | 104.64006 | 31749 ft | 455 kts | 174° |
| 2026-04-17 10:03 | 3.34145 | 104.64314 | 31504 ft | 455 kts | 174° |
| 2026-04-17 10:03 | 3.30960 | 104.64626 | 31255 ft | 455 kts | 174° |
| 2026-04-17 10:03 | 3.27806 | 104.64937 | 31009 ft | 455 kts | 173° |
| 2026-04-17 10:04 | 3.24661 | 104.65247 | 30764 ft | 455 kts | 173° |
| 2026-04-17 10:04 | 3.21477 | 104.65562 | 30516 ft | 455 kts | 173° |
| 2026-04-17 10:04 | 3.18323 | 104.65872 | 30271 ft | 455 kts | 173° |
| 2026-04-17 10:04 | 3.15186 | 104.66180 | 30027 ft | 455 kts | 173° |
| 2026-04-17 10:05 | 3.11978 | 104.66373 | 29772 ft | 456 kts | 180° |
| 2026-04-17 10:05 | 3.08835 | 104.66105 | 29531 ft | 458 kts | 188° |
| 2026-04-17 10:05 | 3.05719 | 104.65364 | 29284 ft | 457 kts | 197° |
| 2026-04-17 10:05 | 3.02763 | 104.64178 | 29039 ft | 457 kts | 205° |
| 2026-04-17 10:06 | 3.00016 | 104.62573 | 28793 ft | 456 kts | 213° |
| 2026-04-17 10:06 | 2.97523 | 104.60573 | 28545 ft | 456 kts | 222° |
| 2026-04-17 10:06 | 2.95310 | 104.58321 | 28301 ft | 456 kts | 225° |
| 2026-04-17 10:06 | 2.93148 | 104.56001 | 28050 ft | 454 kts | 226° |
| 2026-04-17 10:07 | 2.91007 | 104.53685 | 27800 ft | 452 kts | 226° |
| 2026-04-17 10:07 | 2.88840 | 104.51344 | 27547 ft | 451 kts | 226° |
| 2026-04-17 10:07 | 2.86703 | 104.49046 | 27299 ft | 449 kts | 226° |
| 2026-04-17 10:07 | 2.84573 | 104.46761 | 27041 ft | 448 kts | 226° |
| 2026-04-17 10:08 | 2.82454 | 104.44492 | 26756 ft | 446 kts | 226° |
| 2026-04-17 10:08 | 2.80312 | 104.42200 | 26438 ft | 444 kts | 226° |
| 2026-04-17 10:08 | 2.78219 | 104.39963 | 26050 ft | 441 kts | 226° |
| 2026-04-17 10:08 | 2.76143 | 104.37744 | 25607 ft | 438 kts | 226° |
| 2026-04-17 10:09 | 2.74068 | 104.35527 | 25140 ft | 435 kts | 226° |
| 2026-04-17 10:09 | 2.71999 | 104.33317 | 24659 ft | 431 kts | 226° |
| 2026-04-17 10:09 | 2.69961 | 104.31139 | 24181 ft | 427 kts | 226° |
| 2026-04-17 10:09 | 2.67944 | 104.28985 | 23831 ft | 421 kts | 226° |
| 2026-04-17 10:10 | 2.65912 | 104.26815 | 23585 ft | 423 kts | 226° |
| 2026-04-17 10:10 | 2.63914 | 104.24680 | 23343 ft | 422 kts | 226° |
| 2026-04-17 10:10 | 2.61897 | 104.22526 | 23099 ft | 420 kts | 226° |
| 2026-04-17 10:11 | 2.57906 | 104.18263 | 22611 ft | 410 kts | 226° |
| 2026-04-17 10:11 | 2.55983 | 104.16208 | 22370 ft | 400 kts | 226° |
| 2026-04-17 10:11 | 2.54106 | 104.14204 | 22132 ft | 391 kts | 226° |
| 2026-04-17 10:11 | 2.52238 | 104.12231 | 21896 ft | 381 kts | 223° |
| 2026-04-17 10:12 | 2.50099 | 104.10774 | 21641 ft | 370 kts | 199° |
| 2026-04-17 10:12 | 2.47593 | 104.10342 | 21414 ft | 357 kts | 178° |
| 2026-04-17 10:12 | 2.45115 | 104.10406 | 21187 ft | 350 kts | 178° |
| 2026-04-17 10:12 | 2.42683 | 104.10459 | 20958 ft | 349 kts | 178° |
| 2026-04-17 10:13 | 2.40248 | 104.10492 | 20726 ft | 347 kts | 178° |
| 2026-04-17 10:13 | 2.37810 | 104.10513 | 20493 ft | 345 kts | 179° |
| 2026-04-17 10:13 | 2.35416 | 104.10516 | 20263 ft | 344 kts | 179° |
| 2026-04-17 10:13 | 2.33033 | 104.10512 | 20031 ft | 342 kts | 179° |
| 2026-04-17 10:14 | 2.30607 | 104.10513 | 19797 ft | 341 kts | 179° |
| 2026-04-17 10:14 | 2.28233 | 104.10514 | 19565 ft | 340 kts | 179° |
| 2026-04-17 10:14 | 2.25856 | 104.10512 | 19335 ft | 339 kts | 179° |
| 2026-04-17 10:14 | 2.23503 | 104.10513 | 19107 ft | 337 kts | 179° |
| 2026-04-17 10:15 | 2.21153 | 104.10513 | 18877 ft | 336 kts | 179° |
| 2026-04-17 10:15 | 2.18824 | 104.10512 | 18646 ft | 335 kts | 179° |
| 2026-04-17 10:15 | 2.16489 | 104.10513 | 18415 ft | 333 kts | 179° |
| 2026-04-17 10:15 | 2.14143 | 104.10513 | 18178 ft | 331 kts | 179° |
| 2026-04-17 10:16 | 2.11838 | 104.10513 | 17948 ft | 329 kts | 179° |
| 2026-04-17 10:16 | 2.09530 | 104.10512 | 17712 ft | 328 kts | 179° |
| 2026-04-17 10:16 | 2.07234 | 104.10510 | 17477 ft | 326 kts | 179° |
| 2026-04-17 10:16 | 2.04960 | 104.10510 | 17251 ft | 325 kts | 179° |
| 2026-04-17 10:17 | 2.02704 | 104.10506 | 17015 ft | 320 kts | 179° |
| 2026-04-17 10:17 | 2.00479 | 104.10501 | 16779 ft | 313 kts | 179° |
| 2026-04-17 10:17 | 1.98319 | 104.10499 | 16547 ft | 307 kts | 179° |
| 2026-04-17 10:17 | 1.96212 | 104.10503 | 16306 ft | 300 kts | 179° |
| 2026-04-17 10:18 | 1.94131 | 104.10513 | 16074 ft | 294 kts | 179° |
| 2026-04-17 10:18 | 1.92092 | 104.10523 | 15844 ft | 289 kts | 179° |
| 2026-04-17 10:18 | 1.90091 | 104.10532 | 15610 ft | 283 kts | 179° |
| 2026-04-17 10:18 | 1.88105 | 104.10541 | 15372 ft | 278 kts | 179° |
| 2026-04-17 10:19 | 1.86160 | 104.10551 | 15142 ft | 278 kts | 179° |
| 2026-04-17 10:19 | 1.84226 | 104.10561 | 14913 ft | 277 kts | 179° |
| 2026-04-17 10:19 | 1.82298 | 104.10569 | 14680 ft | 276 kts | 179° |
| 2026-04-17 10:19 | 1.80365 | 104.10578 | 14441 ft | 275 kts | 179° |
| 2026-04-17 10:20 | 1.78459 | 104.10587 | 14202 ft | 274 kts | 179° |
| 2026-04-17 10:20 | 1.76553 | 104.10596 | 13963 ft | 273 kts | 179° |
| 2026-04-17 10:20 | 1.74642 | 104.10603 | 13733 ft | 272 kts | 179° |
| 2026-04-17 10:20 | 1.72750 | 104.10613 | 13498 ft | 271 kts | 179° |
| 2026-04-17 10:21 | 1.70840 | 104.10622 | 13260 ft | 270 kts | 179° |
| 2026-04-17 10:21 | 1.68952 | 104.10632 | 13016 ft | 269 kts | 179° |
| 2026-04-17 10:21 | 1.67060 | 104.10640 | 12770 ft | 268 kts | 179° |
| 2026-04-17 10:21 | 1.65190 | 104.10648 | 12533 ft | 267 kts | 179° |
| 2026-04-17 10:22 | 1.63323 | 104.10656 | 12290 ft | 266 kts | 179° |
| 2026-04-17 10:22 | 1.61464 | 104.10722 | 12040 ft | 265 kts | 174° |
| 2026-04-17 10:22 | 1.59612 | 104.10942 | 11785 ft | 264 kts | 171° |
| 2026-04-17 10:22 | 1.57809 | 104.11204 | 11529 ft | 262 kts | 171° |
| 2026-04-17 10:23 | 1.55988 | 104.11475 | 11287 ft | 257 kts | 171° |
| 2026-04-17 10:23 | 1.54228 | 104.11737 | 11052 ft | 254 kts | 171° |
| 2026-04-17 10:23 | 1.52483 | 104.11995 | 10866 ft | 254 kts | 171° |
| 2026-04-17 10:23 | 1.50708 | 104.12257 | 10839 ft | 255 kts | 171° |
| 2026-04-17 10:24 | 1.48951 | 104.12515 | 10754 ft | 256 kts | 171° |
| 2026-04-17 10:24 | 1.47196 | 104.12771 | 10514 ft | 253 kts | 173° |
| 2026-04-17 10:24 | 1.45435 | 104.12747 | 10269 ft | 252 kts | 191° |
| 2026-04-17 10:24 | 1.43731 | 104.12219 | 10030 ft | 252 kts | 201° |
| 2026-04-17 10:25 | 1.42108 | 104.11532 | 9881 ft | 251 kts | 202° |
| 2026-04-17 10:25 | 1.40506 | 104.10836 | 9763 ft | 251 kts | 203° |
| 2026-04-17 10:25 | 1.38898 | 104.10141 | 9646 ft | 251 kts | 202° |
| 2026-04-17 10:25 | 1.37271 | 104.09442 | 9523 ft | 249 kts | 202° |
| 2026-04-17 10:26 | 1.35707 | 104.08775 | 9394 ft | 240 kts | 202° |
| 2026-04-17 10:26 | 1.34187 | 104.08128 | 9265 ft | 230 kts | 202° |
| 2026-04-17 10:26 | 1.32743 | 104.07515 | 9141 ft | 225 kts | 202° |
| 2026-04-17 10:26 | 1.31272 | 104.06892 | 9022 ft | 226 kts | 202° |
| 2026-04-17 10:27 | 1.29828 | 104.06280 | 8905 ft | 226 kts | 202° |
| 2026-04-17 10:27 | 1.28365 | 104.05660 | 8785 ft | 226 kts | 202° |
| 2026-04-17 10:27 | 1.26908 | 104.05043 | 8668 ft | 225 kts | 202° |
| 2026-04-17 10:27 | 1.25462 | 104.04430 | 8550 ft | 225 kts | 202° |
| 2026-04-17 10:28 | 1.24028 | 104.03823 | 8465 ft | 220 kts | 202° |
| 2026-04-17 10:28 | 1.22651 | 104.03240 | 8400 ft | 206 kts | 202° |
| 2026-04-17 10:28 | 1.21370 | 104.02698 | 8268 ft | 193 kts | 202° |
| 2026-04-17 10:28 | 1.20167 | 104.02189 | 8135 ft | 181 kts | 202° |
| 2026-04-17 10:29 | 1.19001 | 104.01701 | 7843 ft | 180 kts | 202° |
| 2026-04-17 10:29 | 1.17851 | 104.01218 | 7497 ft | 181 kts | 202° |
| 2026-04-17 10:29 | 1.16670 | 104.00722 | 7143 ft | 183 kts | 202° |
| 2026-04-17 10:29 | 1.15481 | 104.00222 | 6789 ft | 185 kts | 202° |
| 2026-04-17 10:30 | 1.14296 | 103.99723 | 6440 ft | 186 kts | 202° |
| 2026-04-17 10:30 | 1.13083 | 103.99213 | 6084 ft | 188 kts | 202° |
| 2026-04-17 10:30 | 1.11867 | 103.98700 | 5729 ft | 190 kts | 202° |
| 2026-04-17 10:30 | 1.10645 | 103.98182 | 5378 ft | 191 kts | 202° |
| 2026-04-17 10:31 | 1.09417 | 103.97659 | 5057 ft | 190 kts | 202° |
| 2026-04-17 10:31 | 1.08215 | 103.97144 | 4812 ft | 186 kts | 202° |
| 2026-04-17 10:31 | 1.07038 | 103.96634 | 4567 ft | 181 kts | 202° |
| 2026-04-17 10:31 | 1.05893 | 103.96134 | 4322 ft | 177 kts | 202° |
| 2026-04-17 10:32 | 1.04768 | 103.95641 | 4077 ft | 173 kts | 202° |
| 2026-04-17 10:32 | 1.03680 | 103.95164 | 3916 ft | 164 kts | 202° |
| 2026-04-17 10:32 | 1.02639 | 103.94704 | 3920 ft | 165 kts | 202° |
| 2026-04-17 10:32 | 1.01570 | 103.94230 | 3915 ft | 165 kts | 202° |
| 2026-04-17 10:33 | 1.00517 | 103.93767 | 3915 ft | 165 kts | 202° |
| 2026-04-17 10:33 | 0.99533 | 103.93179 | 3895 ft | 166 kts | 230° |
| 2026-04-17 10:33 | 0.99150 | 103.92110 | 3905 ft | 167 kts | 276° |
| 2026-04-17 10:33 | 0.99510 | 103.91018 | 3937 ft | 166 kts | 297° |
| 2026-04-17 10:34 | 1.00093 | 103.90016 | 3920 ft | 165 kts | 313° |
| 2026-04-17 10:34 | 1.01069 | 103.89487 | 3936 ft | 162 kts | 349° |
| 2026-04-17 10:34 | 1.02184 | 103.89325 | 3930 ft | 162 kts | 355° |
| 2026-04-17 10:34 | 1.03312 | 103.89187 | 3919 ft | 162 kts | 354° |
| 2026-04-17 10:35 | 1.04436 | 103.89015 | 3916 ft | 162 kts | 352° |
| 2026-04-17 10:35 | 1.05546 | 103.88814 | 3912 ft | 162 kts | 351° |
| 2026-04-17 10:35 | 1.06664 | 103.88600 | 3918 ft | 161 kts | 355° |
| 2026-04-17 10:35 | 1.07754 | 103.88566 | 3908 ft | 149 kts | 4° |
| 2026-04-17 10:36 | 1.08776 | 103.88667 | 3911 ft | 146 kts | 13° |
| 2026-04-17 10:36 | 1.09777 | 103.88904 | 3920 ft | 145 kts | 19° |
| 2026-04-17 10:36 | 1.10729 | 103.89222 | 3924 ft | 145 kts | 22° |
| 2026-04-17 10:36 | 1.11681 | 103.89587 | 3924 ft | 145 kts | 23° |
| 2026-04-17 10:37 | 1.12625 | 103.89966 | 3928 ft | 145 kts | 24° |
| 2026-04-17 10:37 | 1.13567 | 103.90350 | 3849 ft | 145 kts | 24° |
| 2026-04-17 10:37 | 1.14495 | 103.90734 | 3666 ft | 144 kts | 24° |
| 2026-04-17 10:37 | 1.15421 | 103.91120 | 3487 ft | 143 kts | 25° |
| 2026-04-17 10:38 | 1.16344 | 103.91508 | 3311 ft | 143 kts | 25° |
| 2026-04-17 10:38 | 1.17271 | 103.91898 | 3134 ft | 143 kts | 25° |
| 2026-04-17 10:38 | 1.18196 | 103.92290 | 2955 ft | 142 kts | 25° |
| 2026-04-17 10:38 | 1.19115 | 103.92679 | 2774 ft | 142 kts | 25° |
| 2026-04-17 10:39 | 1.20023 | 103.93063 | 2595 ft | 141 kts | 26° |
| 2026-04-17 10:39 | 1.20929 | 103.93446 | 2416 ft | 141 kts | 26° |
| 2026-04-17 10:39 | 1.21837 | 103.93831 | 2234 ft | 141 kts | 26° |
| 2026-04-17 10:39 | 1.22746 | 103.94215 | 2054 ft | 140 kts | 26° |
| 2026-04-17 10:40 | 1.23654 | 103.94598 | 1876 ft | 140 kts | 26° |
| 2026-04-17 10:40 | 1.24543 | 103.94974 | 1699 ft | 139 kts | 26° |
| 2026-04-17 10:40 | 1.25445 | 103.95356 | 1523 ft | 139 kts | 26° |
| 2026-04-17 10:40 | 1.26347 | 103.95737 | 1344 ft | 139 kts | 26° |
| 2026-04-17 10:41 | 1.27242 | 103.96115 | 1168 ft | 139 kts | 26° |
| 2026-04-17 10:41 | 1.28139 | 103.96495 | 995 ft | 138 kts | 25° |
| 2026-04-17 10:41 | 1.29031 | 103.96871 | 817 ft | 138 kts | 25° |
| 2026-04-17 10:41 | 1.29923 | 103.97249 | 645 ft | 138 kts | 25° |
| 2026-04-17 10:42 | 1.30804 | 103.97620 | 470 ft | 138 kts | 25° |
| 2026-04-17 10:42 | 1.31683 | 103.97993 | 296 ft | 137 kts | 24° |
| 2026-04-17 10:42 | 1.32564 | 103.98365 | 123 ft | 136 kts | 24° |
| 2026-04-17 10:42 | 1.33418 | 103.98725 | 28 ft | 110 kts | 24° |
| 2026-04-17 10:43 | 1.33848 | 103.98908 | 28 ft | 23 kts | 23° |
| 2026-04-17 10:43 | 1.33985 | 103.98965 | 28 ft | 20 kts | 23° |
| 2026-04-17 10:43 | 1.34119 | 103.99022 | 28 ft | 20 kts | 23° |
| 2026-04-17 10:43 | 1.34248 | 103.99077 | 28 ft | 19 kts | 23° |
| 2026-04-17 10:44 | 1.34376 | 103.99130 | 28 ft | 19 kts | 23° |
| 2026-04-17 10:44 | 1.34429 | 103.99103 | 28 ft | 11 kts | 245° |
| 2026-04-17 10:44 | 1.34377 | 103.99038 | 28 ft | 12 kts | 229° |
| 2026-04-17 10:44 | 1.34324 | 103.98967 | 28 ft | 13 kts | 233° |
| 2026-04-17 10:45 | 1.34263 | 103.98897 | 28 ft | 13 kts | 217° |
| 2026-04-17 10:45 | 1.34178 | 103.98853 | 28 ft | 14 kts | 203° |
| 2026-04-17 10:45 | 1.34085 | 103.98814 | 28 ft | 14 kts | 202° |
| 2026-04-17 10:45 | 1.34040 | 103.98759 | 28 ft | 9 kts | 288° |
| 2026-04-17 10:46 | 1.34057 | 103.98714 | 28 ft | 6 kts | 287° |
| 2026-04-17 10:46 | 1.34072 | 103.98667 | 28 ft | 7 kts | 277° |
| 2026-04-17 10:46 | 1.34048 | 103.98625 | 28 ft | 4 kts | 248° |
| 2026-04-17 10:46 | 1.34047 | 103.98608 | 28 ft | 1 kts | 289° |
| 2026-04-17 10:47 | 1.34055 | 103.98590 | 28 ft | 3 kts | 293° |
| 2026-04-17 10:47 | 1.34058 | 103.98583 | 28 ft | 1 kts | 293° |